createdAt,value
2017-09-11T00:00:07.055Z,0
2017-09-11T00:00:47.663Z,0
2017-09-11T00:01:28.198Z,0
2017-09-11T00:02:08.757Z,0
2017-09-11T00:02:49.352Z,0
2017-09-11T00:03:29.883Z,0
2017-09-11T00:04:10.420Z,0
2017-09-11T00:04:51.098Z,0
2017-09-11T00:05:31.674Z,0
2017-09-11T00:06:12.199Z,0
2017-09-11T00:06:52.870Z,0
2017-09-11T00:07:33.443Z,0
2017-09-11T00:08:13.973Z,0
2017-09-11T00:08:54.532Z,0
2017-09-11T00:09:35.090Z,0
2017-09-11T00:10:15.618Z,0
2017-09-11T00:10:56.172Z,0
2017-09-11T00:11:36.759Z,0
2017-09-11T00:12:17.284Z,0
2017-09-11T00:12:57.824Z,0
2017-09-11T00:13:38.366Z,0
2017-09-11T00:14:18.934Z,0
2017-09-11T00:14:59.521Z,0
2017-09-11T00:15:40.052Z,0
2017-09-11T00:16:20.553Z,0
2017-09-11T00:17:01.096Z,0
2017-09-11T00:17:41.706Z,0
2017-09-11T00:18:22.175Z,0
2017-09-11T00:19:02.709Z,0
2017-09-11T00:19:43.270Z,0
2017-09-11T00:20:23.804Z,0
2017-09-11T00:21:04.345Z,0
2017-09-11T00:21:44.948Z,0
2017-09-11T00:22:25.395Z,0
2017-09-11T00:23:05.960Z,0
2017-09-11T00:23:46.622Z,0
2017-09-11T00:24:27.089Z,0
2017-09-11T00:25:07.650Z,0
2017-09-11T00:25:48.211Z,0
2017-09-11T00:26:28.749Z,0
2017-09-11T00:27:09.281Z,0
2017-09-11T00:27:49.760Z,0
2017-09-11T00:28:30.315Z,0
2017-09-11T00:29:10.854Z,0
2017-09-11T00:29:51.407Z,0
2017-09-11T00:30:31.964Z,0
2017-09-11T00:31:12.496Z,0
2017-09-11T00:31:53.031Z,0
2017-09-11T00:32:33.588Z,0
2017-09-11T00:33:14.055Z,0
2017-09-11T00:33:54.605Z,0
2017-09-11T00:34:35.155Z,0
2017-09-11T00:35:15.682Z,0
2017-09-11T00:35:56.205Z,0
2017-09-11T00:36:36.739Z,0
2017-09-11T00:37:17.291Z,0
2017-09-11T00:37:57.828Z,0
2017-09-11T00:38:38.362Z,0
2017-09-11T00:39:18.928Z,0
2017-09-11T00:39:59.455Z,0
2017-09-11T00:40:39.935Z,0
2017-09-11T00:41:20.480Z,0
2017-09-11T00:42:01.016Z,0
2017-09-11T00:42:41.513Z,0
2017-09-11T00:43:22.061Z,0
2017-09-11T00:44:02.592Z,0
2017-09-11T00:44:43.139Z,0
2017-09-11T00:45:23.688Z,0
2017-09-11T00:46:04.221Z,0
2017-09-11T00:46:44.757Z,0
2017-09-11T00:47:25.308Z,0
2017-09-11T00:48:05.804Z,0
2017-09-11T00:48:46.358Z,0
2017-09-11T00:49:26.933Z,0
2017-09-11T00:50:07.451Z,0
2017-09-11T00:50:47.999Z,0
2017-09-11T00:51:28.502Z,0
2017-09-11T00:52:09.103Z,0
2017-09-11T00:52:49.620Z,0
2017-09-11T00:53:30.156Z,0
2017-09-11T00:54:10.666Z,0
2017-09-11T00:54:52.093Z,0
2017-09-11T00:55:32.627Z,0
2017-09-11T00:56:13.133Z,0
2017-09-11T00:56:53.706Z,0
2017-09-11T00:57:34.251Z,0
2017-09-11T00:58:14.753Z,0
2017-09-11T00:58:55.295Z,0
2017-09-11T00:59:35.841Z,0
2017-09-11T01:00:16.344Z,0
2017-09-11T01:00:56.891Z,0
2017-09-11T01:01:37.411Z,0
2017-09-11T01:02:17.944Z,0
2017-09-11T01:02:58.510Z,0
2017-09-11T01:03:39.044Z,0
2017-09-11T01:04:19.585Z,0
2017-09-11T01:05:00.107Z,0
2017-09-11T01:05:40.681Z,0
2017-09-11T01:06:21.215Z,0
2017-09-11T01:07:01.727Z,0
2017-09-11T01:07:42.261Z,0
2017-09-11T01:08:22.796Z,0
2017-09-11T01:09:03.313Z,0
2017-09-11T01:09:43.850Z,0
2017-09-11T01:10:24.406Z,0
2017-09-11T01:11:04.953Z,0
2017-09-11T01:11:45.501Z,0
2017-09-11T01:12:26.065Z,0
2017-09-11T01:13:06.564Z,0
2017-09-11T01:13:47.065Z,0
2017-09-11T01:14:27.614Z,0
2017-09-11T01:15:08.187Z,0
2017-09-11T01:15:48.719Z,0
2017-09-11T01:16:29.264Z,0
2017-09-11T01:17:09.853Z,0
2017-09-11T01:17:50.368Z,0
2017-09-11T01:18:30.910Z,0
2017-09-11T01:19:11.429Z,0
2017-09-11T01:19:51.950Z,0
2017-09-11T01:20:32.476Z,0
2017-09-11T01:21:13.024Z,0
2017-09-11T01:21:53.571Z,0
2017-09-11T01:22:34.123Z,0
2017-09-11T01:23:14.657Z,0
2017-09-11T01:23:55.190Z,0
2017-09-11T01:24:35.706Z,0
2017-09-11T01:25:16.219Z,0
2017-09-11T01:25:57.359Z,0
2017-09-11T01:26:37.851Z,0
2017-09-11T01:27:18.398Z,0
2017-09-11T01:27:58.904Z,0
2017-09-11T01:28:39.404Z,0
2017-09-11T01:29:19.976Z,0
2017-09-11T01:30:00.481Z,0
2017-09-11T01:30:41.041Z,0
2017-09-11T01:31:21.571Z,0
2017-09-11T01:32:02.133Z,0
2017-09-11T01:32:42.664Z,0
2017-09-11T01:33:23.190Z,0
2017-09-11T01:34:03.727Z,0
2017-09-11T01:34:44.271Z,0
2017-09-11T01:35:24.822Z,0
2017-09-11T01:36:05.355Z,0
2017-09-11T01:36:45.905Z,0
2017-09-11T01:37:26.433Z,0
2017-09-11T01:38:06.953Z,0
2017-09-11T01:38:47.528Z,0
2017-09-11T01:39:28.012Z,0
2017-09-11T01:40:08.559Z,0
2017-09-11T01:40:49.069Z,0
2017-09-11T01:41:29.598Z,0
2017-09-11T01:42:10.133Z,0
2017-09-11T01:42:50.675Z,0
2017-09-11T01:43:31.213Z,0
2017-09-11T01:44:11.746Z,0
2017-09-11T01:44:52.286Z,0
2017-09-11T01:45:32.827Z,0
2017-09-11T01:46:13.349Z,0
2017-09-11T01:46:53.887Z,0
2017-09-11T01:47:34.454Z,0
2017-09-11T01:48:14.958Z,0
2017-09-11T01:48:55.501Z,0
2017-09-11T01:49:36.020Z,0
2017-09-11T01:50:16.547Z,0
2017-09-11T01:50:57.123Z,0
2017-09-11T01:51:37.679Z,0
2017-09-11T01:52:18.155Z,0
2017-09-11T01:52:58.690Z,0
2017-09-11T01:53:39.239Z,0
2017-09-11T01:54:19.764Z,0
2017-09-11T01:55:00.329Z,0
2017-09-11T01:55:40.909Z,0
2017-09-11T01:56:21.475Z,0
2017-09-11T01:57:02.007Z,0
2017-09-11T01:57:42.552Z,0
2017-09-11T01:58:23.100Z,0
2017-09-11T01:59:03.631Z,0
2017-09-11T01:59:44.190Z,0
2017-09-11T02:00:24.756Z,0
2017-09-11T02:01:05.269Z,0
2017-09-11T02:01:45.763Z,0
2017-09-11T02:02:26.320Z,0
2017-09-11T02:03:06.845Z,0
2017-09-11T02:03:47.422Z,0
2017-09-11T02:04:27.961Z,0
2017-09-11T02:05:08.502Z,0
2017-09-11T02:05:49.063Z,0
2017-09-11T02:06:29.639Z,0
2017-09-11T02:07:10.158Z,0
2017-09-11T02:07:50.686Z,0
2017-09-11T02:08:31.255Z,0
2017-09-11T02:09:11.796Z,0
2017-09-11T02:09:52.324Z,0
2017-09-11T02:10:32.886Z,0
2017-09-11T02:11:13.413Z,0
2017-09-11T02:11:53.912Z,0
2017-09-11T02:12:34.481Z,0
2017-09-11T02:13:15.026Z,0
2017-09-11T02:13:55.560Z,0
2017-09-11T02:14:36.097Z,0
2017-09-11T02:15:16.662Z,0
2017-09-11T02:15:57.190Z,0
2017-09-11T02:16:37.725Z,0
2017-09-11T02:17:18.239Z,0
2017-09-11T02:17:58.775Z,0
2017-09-11T02:18:39.334Z,0
2017-09-11T02:19:19.923Z,0
2017-09-11T02:20:00.486Z,0
2017-09-11T02:20:41.000Z,0
2017-09-11T02:21:21.548Z,0
2017-09-11T02:22:02.081Z,0
2017-09-11T02:22:42.629Z,0
2017-09-11T02:23:23.212Z,0
2017-09-11T02:24:03.721Z,0
2017-09-11T02:24:44.277Z,0
2017-09-11T02:25:24.824Z,0
2017-09-11T02:26:05.322Z,0
2017-09-11T02:26:45.878Z,0
2017-09-11T02:27:26.392Z,0
2017-09-11T02:28:06.922Z,0
2017-09-11T02:28:47.487Z,0
2017-09-11T02:29:28.067Z,0
2017-09-11T02:30:08.613Z,0
2017-09-11T02:30:49.167Z,0
2017-09-11T02:31:29.698Z,0
2017-09-11T02:32:10.248Z,0
2017-09-11T02:32:50.743Z,0
2017-09-11T02:33:31.284Z,0
2017-09-11T02:34:11.800Z,0
2017-09-11T02:34:52.327Z,0
2017-09-11T02:35:32.879Z,0
2017-09-11T02:36:13.938Z,0
2017-09-11T02:36:54.490Z,0
2017-09-11T02:37:35.019Z,0
2017-09-11T02:38:15.551Z,0
2017-09-11T02:38:56.074Z,0
2017-09-11T02:39:36.558Z,0
2017-09-11T02:40:17.082Z,0
2017-09-11T02:40:57.639Z,0
2017-09-11T02:41:38.160Z,0
2017-09-11T02:42:18.707Z,0
2017-09-11T02:42:59.220Z,0
2017-09-11T02:43:39.765Z,0
2017-09-11T02:44:20.286Z,0
2017-09-11T02:45:00.825Z,0
2017-09-11T02:45:41.332Z,0
2017-09-11T02:46:21.930Z,0
2017-09-11T02:47:02.461Z,0
2017-09-11T02:47:42.986Z,0
2017-09-11T02:48:23.490Z,0
2017-09-11T02:49:04.008Z,0
2017-09-11T02:49:44.560Z,0
2017-09-11T02:50:25.087Z,0
2017-09-11T02:51:05.655Z,0
2017-09-11T02:51:46.174Z,0
2017-09-11T02:52:26.677Z,0
2017-09-11T02:53:07.200Z,0
2017-09-11T02:53:47.747Z,0
2017-09-11T02:54:28.313Z,0
2017-09-11T02:55:08.832Z,0
2017-09-11T02:55:49.328Z,0
2017-09-11T02:56:29.860Z,0
2017-09-11T02:57:10.402Z,0
2017-09-11T02:57:50.944Z,0
2017-09-11T02:58:31.493Z,0
2017-09-11T02:59:12.025Z,0
2017-09-11T02:59:52.605Z,0
2017-09-11T03:00:33.136Z,0
2017-09-11T03:01:13.676Z,0
2017-09-11T03:01:54.207Z,0
2017-09-11T03:02:34.797Z,0
2017-09-11T03:03:15.327Z,0
2017-09-11T03:03:55.839Z,0
2017-09-11T03:04:36.361Z,0
2017-09-11T03:05:16.892Z,0
2017-09-11T03:05:57.437Z,0
2017-09-11T03:06:37.922Z,0
2017-09-11T03:07:18.473Z,0
2017-09-11T03:07:59.007Z,0
2017-09-11T03:08:39.535Z,0
2017-09-11T03:09:20.069Z,0
2017-09-11T03:10:00.565Z,0
2017-09-11T03:10:41.107Z,0
2017-09-11T03:11:21.627Z,0
2017-09-11T03:12:02.153Z,0
2017-09-11T03:12:42.679Z,0
2017-09-11T03:13:23.213Z,0
2017-09-11T03:14:03.760Z,0
2017-09-11T03:14:44.294Z,0
2017-09-11T03:15:24.836Z,0
2017-09-11T03:16:05.340Z,0
2017-09-11T03:16:45.927Z,0
2017-09-11T03:17:26.391Z,0
2017-09-11T03:18:06.961Z,0
2017-09-11T03:18:47.484Z,0
2017-09-11T03:19:27.974Z,0
2017-09-11T03:20:08.521Z,0
2017-09-11T03:20:49.074Z,0
2017-09-11T03:21:29.607Z,0
2017-09-11T03:22:10.163Z,0
2017-09-11T03:22:50.702Z,0
2017-09-11T03:23:31.200Z,0
2017-09-11T03:24:11.744Z,0
2017-09-11T03:24:52.287Z,0
2017-09-11T03:25:32.839Z,0
2017-09-11T03:26:13.367Z,0
2017-09-11T03:26:53.968Z,0
2017-09-11T03:27:34.449Z,0
2017-09-11T03:28:14.977Z,0
2017-09-11T03:28:55.560Z,0
2017-09-11T03:29:36.110Z,0
2017-09-11T03:30:16.632Z,0
2017-09-11T03:30:57.181Z,0
2017-09-11T03:31:37.721Z,0
2017-09-11T03:32:18.213Z,0
2017-09-11T03:32:58.726Z,0
2017-09-11T03:33:39.275Z,0
2017-09-11T03:34:19.861Z,0
2017-09-11T03:35:00.382Z,0
2017-09-11T03:35:40.900Z,0
2017-09-11T03:36:21.466Z,0
2017-09-11T03:37:02.003Z,0
2017-09-11T03:37:42.543Z,0
2017-09-11T03:38:23.098Z,0
2017-09-11T03:39:03.630Z,0
2017-09-11T03:39:44.141Z,0
2017-09-11T03:40:24.673Z,0
2017-09-11T03:41:05.209Z,0
2017-09-11T03:41:45.744Z,0
2017-09-11T03:42:26.321Z,0
2017-09-11T03:43:06.866Z,0
2017-09-11T03:43:47.434Z,0
2017-09-11T03:44:27.952Z,0
2017-09-11T03:45:08.500Z,0
2017-09-11T03:45:49.012Z,0
2017-09-11T03:46:29.565Z,0
2017-09-11T03:47:10.137Z,0
2017-09-11T03:47:50.684Z,0
2017-09-11T03:48:31.199Z,0
2017-09-11T03:49:11.707Z,0
2017-09-11T03:49:52.256Z,0
2017-09-11T03:50:32.819Z,0
2017-09-11T03:51:13.352Z,0
2017-09-11T03:51:53.847Z,0
2017-09-11T03:52:34.394Z,0
2017-09-11T03:53:14.935Z,0
2017-09-11T03:53:55.456Z,0
2017-09-11T03:54:36.005Z,0
2017-09-11T03:55:16.551Z,0
2017-09-11T03:55:57.110Z,0
2017-09-11T03:56:37.671Z,0
2017-09-11T03:57:18.176Z,0
2017-09-11T03:57:58.707Z,0
2017-09-11T03:58:39.221Z,0
2017-09-11T03:59:19.833Z,0
2017-09-11T04:00:00.329Z,0
2017-09-11T04:00:40.881Z,0
2017-09-11T04:01:21.455Z,0
2017-09-11T04:02:02.009Z,0
2017-09-11T04:02:42.514Z,0
2017-09-11T04:03:23.014Z,0
2017-09-11T04:04:03.608Z,0
2017-09-11T04:04:44.136Z,0
2017-09-11T04:05:24.692Z,0
2017-09-11T04:06:05.158Z,0
2017-09-11T04:06:45.736Z,0
2017-09-11T04:07:26.248Z,0
2017-09-11T04:08:06.827Z,0
2017-09-11T04:08:47.351Z,0
2017-09-11T04:09:27.911Z,0
2017-09-11T04:10:08.462Z,0
2017-09-11T04:10:48.990Z,0
2017-09-11T04:11:29.638Z,0
2017-09-11T04:12:10.208Z,0
2017-09-11T04:12:50.750Z,0
2017-09-11T04:13:31.233Z,0
2017-09-11T04:14:11.781Z,0
2017-09-11T04:14:52.305Z,0
2017-09-11T04:15:32.839Z,0
2017-09-11T04:16:13.367Z,0
2017-09-11T04:16:53.865Z,0
2017-09-11T04:17:34.409Z,0
2017-09-11T04:18:14.943Z,0
2017-09-11T04:18:55.463Z,0
2017-09-11T04:19:35.976Z,0
2017-09-11T04:20:16.545Z,0
2017-09-11T04:20:57.065Z,0
2017-09-11T04:21:37.602Z,0
2017-09-11T04:22:18.153Z,0
2017-09-11T04:22:58.739Z,0
2017-09-11T04:23:39.271Z,0
2017-09-11T04:24:19.820Z,0
2017-09-11T04:25:00.317Z,0
2017-09-11T04:25:40.851Z,0
2017-09-11T04:26:21.403Z,0
2017-09-11T04:27:01.917Z,0
2017-09-11T04:27:42.471Z,0
2017-09-11T04:28:23.019Z,0
2017-09-11T04:29:03.555Z,0
2017-09-11T04:29:44.094Z,0
2017-09-11T04:30:24.659Z,0
2017-09-11T04:31:05.199Z,0
2017-09-11T04:31:45.762Z,0
2017-09-11T04:32:26.236Z,0
2017-09-11T04:33:06.780Z,0
2017-09-11T04:33:47.333Z,0
2017-09-11T04:34:27.867Z,0
2017-09-11T04:35:08.356Z,4
2017-09-11T04:35:48.927Z,4
2017-09-11T04:36:29.482Z,0
2017-09-11T04:37:10.000Z,0
2017-09-11T04:37:50.486Z,0
2017-09-11T04:38:31.045Z,4
2017-09-11T04:39:11.563Z,4
2017-09-11T04:39:52.106Z,4
2017-09-11T04:40:32.624Z,4
2017-09-11T04:41:13.135Z,4
2017-09-11T04:41:53.690Z,4
2017-09-11T04:42:34.197Z,4
2017-09-11T04:43:14.818Z,4
2017-09-11T04:43:55.300Z,4
2017-09-11T04:44:35.835Z,4
2017-09-11T04:45:16.403Z,8
2017-09-11T04:45:56.963Z,4
2017-09-11T04:46:37.507Z,8
2017-09-11T04:47:18.069Z,8
2017-09-11T04:47:58.561Z,8
2017-09-11T04:48:39.094Z,12
2017-09-11T04:49:19.657Z,12
2017-09-11T04:50:00.175Z,12
2017-09-11T04:50:40.700Z,16
2017-09-11T04:51:21.248Z,20
2017-09-11T04:52:01.804Z,16
2017-09-11T04:52:42.338Z,16
2017-09-11T04:53:22.887Z,24
2017-09-11T04:54:03.436Z,24
2017-09-11T04:54:43.996Z,24
2017-09-11T04:55:24.532Z,24
2017-09-11T04:56:05.083Z,24
2017-09-11T04:56:45.648Z,28
2017-09-11T04:57:26.170Z,32
2017-09-11T04:58:06.681Z,32
2017-09-11T04:58:47.241Z,36
2017-09-11T04:59:27.755Z,40
2017-09-11T05:00:08.331Z,44
2017-09-11T05:00:48.869Z,48
2017-09-11T05:01:29.423Z,52
2017-09-11T05:02:09.939Z,56
2017-09-11T05:02:50.458Z,60
2017-09-11T05:03:30.982Z,64
2017-09-11T05:04:11.541Z,68
2017-09-11T05:04:52.066Z,72
2017-09-11T05:05:32.623Z,80
2017-09-11T05:06:13.207Z,88
2017-09-11T05:06:53.705Z,92
2017-09-11T05:07:34.208Z,108
2017-09-11T05:08:14.753Z,120
2017-09-11T05:08:55.311Z,124
2017-09-11T05:09:35.829Z,136
2017-09-11T05:10:16.393Z,152
2017-09-11T05:10:56.867Z,168
2017-09-11T05:11:37.419Z,184
2017-09-11T05:12:17.960Z,196
2017-09-11T05:12:58.497Z,204
2017-09-11T05:13:39.093Z,228
2017-09-11T05:14:19.779Z,248
2017-09-11T05:15:00.338Z,272
2017-09-11T05:15:40.875Z,296
2017-09-11T05:16:21.422Z,328
2017-09-11T05:17:01.943Z,376
2017-09-11T05:17:42.465Z,420
2017-09-11T05:18:23.035Z,448
2017-09-11T05:19:03.498Z,440
2017-09-11T05:19:44.021Z,424
2017-09-11T05:20:24.611Z,432
2017-09-11T05:21:05.142Z,452
2017-09-11T05:21:45.661Z,460
2017-09-11T05:22:26.244Z,448
2017-09-11T05:23:06.750Z,440
2017-09-11T05:23:47.255Z,428
2017-09-11T05:24:28.317Z,404
2017-09-11T05:25:08.965Z,388
2017-09-11T05:25:49.435Z,396
2017-09-11T05:26:29.957Z,420
2017-09-11T05:27:10.507Z,444
2017-09-11T05:27:51.009Z,468
2017-09-11T05:28:31.527Z,488
2017-09-11T05:29:12.041Z,528
2017-09-11T05:29:52.596Z,560
2017-09-11T05:30:33.117Z,588
2017-09-11T05:31:13.654Z,612
2017-09-11T05:31:54.177Z,668
2017-09-11T05:32:34.712Z,696
2017-09-11T05:33:15.239Z,740
2017-09-11T05:33:55.764Z,764
2017-09-11T05:34:36.338Z,788
2017-09-11T05:35:16.847Z,824
2017-09-11T05:35:57.405Z,860
2017-09-11T05:36:37.953Z,900
2017-09-11T05:37:18.557Z,952
2017-09-11T05:37:59.071Z,988
2017-09-11T05:38:39.594Z,996
2017-09-11T05:39:20.472Z,1008
2017-09-11T05:40:01.193Z,1004
2017-09-11T05:40:41.959Z,1048
2017-09-11T05:41:22.664Z,1112
2017-09-11T05:42:03.326Z,1172
2017-09-11T05:42:44.020Z,1232
2017-09-11T05:43:24.524Z,1312
2017-09-11T05:44:05.128Z,1388
2017-09-11T05:44:45.768Z,1416
2017-09-11T05:45:26.642Z,1392
2017-09-11T05:46:07.521Z,1396
2017-09-11T05:46:47.911Z,1440
2017-09-11T05:47:28.405Z,1484
2017-09-11T05:48:08.950Z,1432
2017-09-11T05:48:49.450Z,1360
2017-09-11T05:49:30.033Z,1328
2017-09-11T05:50:10.551Z,1324
2017-09-11T05:50:51.076Z,1256
2017-09-11T05:51:31.635Z,1328
2017-09-11T05:52:12.183Z,1460
2017-09-11T05:52:52.739Z,1560
2017-09-11T05:53:33.217Z,1664
2017-09-11T05:54:13.793Z,1684
2017-09-11T05:54:54.294Z,1688
2017-09-11T05:55:34.843Z,1768
2017-09-11T05:56:15.388Z,1908
2017-09-11T05:56:55.960Z,1948
2017-09-11T05:57:36.452Z,2008
2017-09-11T05:58:17.001Z,2160
2017-09-11T05:58:57.534Z,2276
2017-09-11T05:59:38.067Z,2300
2017-09-11T06:00:18.622Z,2300
2017-09-11T06:00:59.160Z,2420
2017-09-11T06:01:39.701Z,2544
2017-09-11T06:02:20.248Z,2524
2017-09-11T06:03:00.774Z,2364
2017-09-11T06:03:41.315Z,2076
2017-09-11T06:04:21.825Z,1804
2017-09-11T06:05:02.389Z,1788
2017-09-11T06:05:42.966Z,1804
2017-09-11T06:06:23.464Z,1760
2017-09-11T06:07:04.008Z,1900
2017-09-11T06:07:44.550Z,2140
2017-09-11T06:08:25.028Z,2292
2017-09-11T06:09:05.596Z,2424
2017-09-11T06:09:46.128Z,2500
2017-09-11T06:10:26.686Z,2512
2017-09-11T06:11:07.244Z,2520
2017-09-11T06:11:47.803Z,2564
2017-09-11T06:12:28.316Z,2648
2017-09-11T06:13:08.855Z,2700
2017-09-11T06:13:49.468Z,2780
2017-09-11T06:14:30.007Z,2844
2017-09-11T06:15:10.544Z,2752
2017-09-11T06:15:51.099Z,2512
2017-09-11T06:16:31.653Z,2052
2017-09-11T06:17:12.201Z,1664
2017-09-11T06:17:52.758Z,1460
2017-09-11T06:18:33.285Z,1448
2017-09-11T06:19:13.810Z,1480
2017-09-11T06:19:54.407Z,1572
2017-09-11T06:20:34.921Z,1864
2017-09-11T06:21:15.514Z,2264
2017-09-11T06:21:55.966Z,2812
2017-09-11T06:22:36.534Z,3408
2017-09-11T06:23:17.069Z,3852
2017-09-11T06:23:57.576Z,3892
2017-09-11T06:24:38.143Z,3656
2017-09-11T06:25:18.690Z,3260
2017-09-11T06:25:59.218Z,3560
2017-09-11T06:26:39.745Z,3660
2017-09-11T06:27:20.320Z,3432
2017-09-11T06:28:00.857Z,3264
2017-09-11T06:28:41.358Z,3440
2017-09-11T06:29:21.960Z,3788
2017-09-11T06:30:02.476Z,4056
2017-09-11T06:30:43.011Z,4624
2017-09-11T06:31:26.199Z,5220
2017-09-11T06:32:07.152Z,5564
2017-09-11T06:32:47.651Z,5740
2017-09-11T06:33:28.203Z,5808
2017-09-11T06:34:08.733Z,5880
2017-09-11T06:34:49.289Z,5584
2017-09-11T06:35:29.853Z,5332
2017-09-11T06:36:10.384Z,5256
2017-09-11T06:36:50.932Z,5432
2017-09-11T06:37:31.435Z,5640
2017-09-11T06:38:12.179Z,5708
2017-09-11T06:38:52.710Z,5504
2017-09-11T06:39:33.234Z,4976
2017-09-11T06:40:13.777Z,4380
2017-09-11T06:40:54.296Z,3940
2017-09-11T06:41:34.858Z,3688
2017-09-11T06:42:15.396Z,3472
2017-09-11T06:42:55.950Z,3192
2017-09-11T06:43:36.435Z,2864
2017-09-11T06:44:16.986Z,2520
2017-09-11T06:44:58.431Z,2276
2017-09-11T06:45:39.290Z,2164
2017-09-11T06:46:19.860Z,2136
2017-09-11T06:47:01.856Z,2160
2017-09-11T06:47:42.392Z,2224
2017-09-11T06:48:22.955Z,2276
2017-09-11T06:49:03.559Z,2332
2017-09-11T06:49:44.075Z,2360
2017-09-11T06:50:24.631Z,2384
2017-09-11T06:51:05.147Z,2328
2017-09-11T06:51:45.716Z,2272
2017-09-11T06:52:26.233Z,2188
2017-09-11T06:53:06.735Z,2128
2017-09-11T06:53:47.966Z,2040
2017-09-11T06:54:28.512Z,1944
2017-09-11T06:55:09.104Z,1832
2017-09-11T06:55:49.614Z,1768
2017-09-11T06:56:30.202Z,1704
2017-09-11T06:57:10.753Z,1636
2017-09-11T06:57:51.282Z,1608
2017-09-11T06:58:31.811Z,1624
2017-09-11T06:59:12.382Z,1688
2017-09-11T06:59:52.951Z,1768
2017-09-11T07:00:33.453Z,1884
2017-09-11T07:01:14.116Z,1964
2017-09-11T07:01:54.649Z,2016
2017-09-11T07:02:35.143Z,1988
2017-09-11T07:03:15.683Z,1872
2017-09-11T07:03:56.249Z,1712
2017-09-11T07:04:36.792Z,1596
2017-09-11T07:05:17.357Z,1556
2017-09-11T07:05:58.078Z,1560
2017-09-11T07:06:38.568Z,1580
2017-09-11T07:07:19.107Z,1592
2017-09-11T07:07:59.659Z,1572
2017-09-11T07:08:40.190Z,1584
2017-09-11T07:09:20.725Z,1616
2017-09-11T07:10:01.342Z,1672
2017-09-11T07:10:41.825Z,1632
2017-09-11T07:11:22.390Z,1700
2017-09-11T07:12:03.175Z,1828
2017-09-11T07:12:43.790Z,1920
2017-09-11T07:13:24.327Z,1940
2017-09-11T07:14:04.863Z,1856
2017-09-11T07:14:45.344Z,1828
2017-09-11T07:15:25.883Z,1816
2017-09-11T07:16:06.474Z,1836
2017-09-11T07:16:47.012Z,1876
2017-09-11T07:17:27.539Z,1948
2017-09-11T07:18:08.122Z,2028
2017-09-11T07:18:48.658Z,2080
2017-09-11T07:19:29.944Z,2128
2017-09-11T07:20:10.578Z,2216
2017-09-11T07:20:51.113Z,2300
2017-09-11T07:21:31.675Z,2344
2017-09-11T07:22:13.082Z,2356
2017-09-11T07:22:53.584Z,2312
2017-09-11T07:23:34.183Z,2264
2017-09-11T07:24:14.695Z,2140
2017-09-11T07:24:55.389Z,2116
2017-09-11T07:25:35.908Z,2072
2017-09-11T07:26:16.465Z,2000
2017-09-11T07:26:56.931Z,1896
2017-09-11T07:27:37.516Z,1860
2017-09-11T07:28:18.119Z,1892
2017-09-11T07:28:58.678Z,1976
2017-09-11T07:29:39.217Z,2040
2017-09-11T07:30:19.748Z,2160
2017-09-11T07:31:00.339Z,2284
2017-09-11T07:31:40.928Z,2340
2017-09-11T07:32:21.459Z,2320
2017-09-11T07:33:02.010Z,2368
2017-09-11T07:33:42.530Z,2516
2017-09-11T07:34:23.100Z,2460
2017-09-11T07:35:03.634Z,2280
2017-09-11T07:35:44.175Z,2192
2017-09-11T07:36:25.033Z,2004
2017-09-11T07:37:05.614Z,1908
2017-09-11T07:37:46.166Z,1724
2017-09-11T07:38:26.714Z,1668
2017-09-11T07:39:07.306Z,1760
2017-09-11T07:39:47.811Z,1772
2017-09-11T07:40:28.377Z,1556
2017-09-11T07:41:08.903Z,1444
2017-09-11T07:41:49.444Z,1436
2017-09-11T07:42:29.964Z,1472
2017-09-11T07:43:10.625Z,1476
2017-09-11T07:43:51.279Z,1612
2017-09-11T07:44:31.806Z,1740
2017-09-11T07:45:12.389Z,2028
2017-09-11T07:45:52.859Z,2376
2017-09-11T07:46:33.411Z,2664
2017-09-11T07:47:13.977Z,3004
2017-09-11T07:47:54.469Z,3492
2017-09-11T07:48:35.043Z,3956
2017-09-11T07:49:15.663Z,4156
2017-09-11T07:49:57.558Z,4288
2017-09-11T07:50:38.065Z,4352
2017-09-11T07:51:18.586Z,4572
2017-09-11T07:51:59.169Z,4936
2017-09-11T07:52:39.713Z,5264
2017-09-11T07:53:20.288Z,5512
2017-09-11T07:54:00.812Z,5556
2017-09-11T07:54:41.346Z,5480
2017-09-11T07:55:21.897Z,5068
2017-09-11T07:56:02.435Z,4712
2017-09-11T07:56:43.012Z,4496
2017-09-11T07:57:23.583Z,4476
2017-09-11T07:58:04.101Z,4624
2017-09-11T07:58:44.681Z,4616
2017-09-11T07:59:25.213Z,4556
2017-09-11T08:00:05.815Z,4372
2017-09-11T08:00:46.309Z,4128
2017-09-11T08:01:26.815Z,3868
2017-09-11T08:02:07.317Z,3576
2017-09-11T08:02:47.836Z,3356
2017-09-11T08:03:28.367Z,3152
2017-09-11T08:04:08.926Z,2996
2017-09-11T08:04:49.468Z,2816
2017-09-11T08:05:30.016Z,2744
2017-09-11T08:06:10.904Z,2716
2017-09-11T08:06:51.457Z,2600
2017-09-11T08:07:31.992Z,2564
2017-09-11T08:08:12.529Z,2688
2017-09-11T08:08:53.145Z,2868
2017-09-11T08:09:33.680Z,2964
2017-09-11T08:10:14.202Z,2868
2017-09-11T08:10:54.763Z,2688
2017-09-11T08:11:35.341Z,2780
2017-09-11T08:12:15.859Z,3032
2017-09-11T08:12:56.412Z,3236
2017-09-11T08:13:36.964Z,3340
2017-09-11T08:14:17.495Z,3136
2017-09-11T08:14:58.061Z,2880
2017-09-11T08:15:38.623Z,2612
2017-09-11T08:16:19.174Z,2508
2017-09-11T08:16:59.731Z,2604
2017-09-11T08:17:40.290Z,2808
2017-09-11T08:18:20.834Z,3020
2017-09-11T08:19:01.415Z,3144
2017-09-11T08:19:42.010Z,3268
2017-09-11T08:20:22.488Z,3380
2017-09-11T08:21:03.007Z,3504
2017-09-11T08:21:43.546Z,3640
2017-09-11T08:22:24.105Z,3672
2017-09-11T08:23:04.648Z,3724
2017-09-11T08:23:45.173Z,3784
2017-09-11T08:24:25.721Z,3792
2017-09-11T08:25:06.336Z,3856
2017-09-11T08:25:46.867Z,3948
2017-09-11T08:26:27.426Z,4056
2017-09-11T08:27:08.108Z,4044
2017-09-11T08:27:48.690Z,4160
2017-09-11T08:28:29.281Z,4212
2017-09-11T08:29:09.820Z,4452
2017-09-11T08:29:50.435Z,4668
2017-09-11T08:30:30.970Z,4620
2017-09-11T08:31:11.667Z,4488
2017-09-11T08:31:52.196Z,4424
2017-09-11T08:32:32.738Z,4116
2017-09-11T08:33:13.254Z,3816
2017-09-11T08:33:53.812Z,3652
2017-09-11T08:34:34.377Z,3364
2017-09-11T08:35:14.897Z,2988
2017-09-11T08:35:55.464Z,2636
2017-09-11T08:36:35.959Z,2392
2017-09-11T08:37:16.541Z,2044
2017-09-11T08:37:57.155Z,1876
2017-09-11T08:38:37.730Z,1836
2017-09-11T08:39:18.251Z,2112
2017-09-11T08:39:58.808Z,2560
2017-09-11T08:40:39.321Z,3100
2017-09-11T08:41:19.903Z,3864
2017-09-11T08:42:00.441Z,4512
2017-09-11T08:42:40.945Z,4916
2017-09-11T08:43:21.472Z,5288
2017-09-11T08:44:02.012Z,5460
2017-09-11T08:44:42.569Z,5332
2017-09-11T08:45:23.124Z,5092
2017-09-11T08:46:03.627Z,5116
2017-09-11T08:46:44.151Z,5216
2017-09-11T08:47:24.826Z,5404
2017-09-11T08:48:05.394Z,5540
2017-09-11T08:48:45.930Z,5472
2017-09-11T08:49:26.511Z,5464
2017-09-11T08:50:07.025Z,5324
2017-09-11T08:50:47.561Z,5036
2017-09-11T08:51:28.098Z,4776
2017-09-11T08:52:08.974Z,4600
2017-09-11T08:52:49.324Z,4424
2017-09-11T08:53:29.836Z,4056
2017-09-11T08:54:10.881Z,3792
2017-09-11T08:54:51.379Z,3616
2017-09-11T08:55:31.953Z,3408
2017-09-11T08:56:12.476Z,3200
2017-09-11T08:56:53.154Z,3384
2017-09-11T08:57:33.785Z,3820
2017-09-11T08:58:14.343Z,3892
2017-09-11T08:58:54.992Z,3872
2017-09-11T08:59:35.395Z,3876
2017-09-11T09:00:16.670Z,3396
2017-09-11T09:00:57.275Z,3780
2017-09-11T09:01:37.824Z,4796
2017-09-11T09:02:19.327Z,5292
2017-09-11T09:02:59.883Z,5580
2017-09-11T09:03:40.462Z,5576
2017-09-11T09:04:21.015Z,5952
2017-09-11T09:05:01.522Z,6336
2017-09-11T09:05:42.040Z,6556
2017-09-11T09:06:22.571Z,6552
2017-09-11T09:07:03.123Z,6752
2017-09-11T09:07:43.638Z,6552
2017-09-11T09:08:24.217Z,6244
2017-09-11T09:09:04.722Z,6228
2017-09-11T09:09:45.281Z,6512
2017-09-11T09:10:25.767Z,6268
2017-09-11T09:11:06.314Z,5688
2017-09-11T09:11:46.849Z,5060
2017-09-11T09:12:27.393Z,4400
2017-09-11T09:13:07.951Z,4048
2017-09-11T09:13:48.453Z,3928
2017-09-11T09:14:29.031Z,3724
2017-09-11T09:15:09.578Z,3668
2017-09-11T09:15:50.073Z,3760
2017-09-11T09:16:30.627Z,3804
2017-09-11T09:17:11.210Z,3520
2017-09-11T09:17:51.752Z,3520
2017-09-11T09:18:32.321Z,3356
2017-09-11T09:19:12.861Z,3172
2017-09-11T09:19:53.387Z,3044
2017-09-11T09:20:33.942Z,3112
2017-09-11T09:21:14.499Z,3124
2017-09-11T09:21:55.053Z,3084
2017-09-11T09:22:35.581Z,3252
2017-09-11T09:23:16.111Z,3300
2017-09-11T09:23:56.743Z,3152
2017-09-11T09:24:37.319Z,3132
2017-09-11T09:25:17.851Z,3312
2017-09-11T09:25:58.387Z,3308
2017-09-11T09:26:39.039Z,3296
2017-09-11T09:27:19.513Z,3460
2017-09-11T09:28:00.193Z,3832
2017-09-11T09:28:40.731Z,4116
2017-09-11T09:29:21.213Z,4356
2017-09-11T09:30:01.787Z,4856
2017-09-11T09:30:42.301Z,5212